Time;durP1;ratioP1;P1;durP2;ratioP2;P2;SDS_P1;SDS_P2;PMS_P1;PMS_P2;Temp;Humidity;BMP_temperature;BMP_pressure;BME280_temperature;BME280_humidity;BME280_pressure;Samples;Min_cycle;Max_cycle;Signal;HPM_P1;HPM_P2
2022/05/10 00:00:05;;;;;;;3.60;2.70;;;13.80;70.00;;;;;;5035406;28;20064;-77
2022/05/10 00:02:41;;;;;;;4.90;2.30;;;13.80;70.30;;;;;;5048006;28;20053;-78
2022/05/10 00:05:10;;;;;;;4.05;2.63;;;13.80;70.50;;;;;;5035758;28;20049;-78
2022/05/10 00:07:38;;;;;;;6.18;2.65;;;13.80;70.80;;;;;;5035595;28;20060;-78
2022/05/10 00:10:10;;;;;;;4.45;2.75;;;13.80;71.00;;;;;;5032884;28;20045;-78
2022/05/10 00:12:38;;;;;;;6.13;2.30;;;13.70;71.40;;;;;;5032435;28;20045;-78
2022/05/10 00:15:07;;;;;;;5.43;2.67;;;13.70;71.70;;;;;;5051592;28;20044;-78
2022/05/10 00:17:40;;;;;;;4.00;2.40;;;13.60;72.10;;;;;;5053789;28;20051;-77
2022/05/10 00:20:18;;;;;;;4.40;2.58;;;13.60;72.30;;;;;;5048453;28;20494;-78
2022/05/10 00:22:46;;;;;;;5.20;2.47;;;13.60;72.70;;;;;;5034345;28;20037;-77
2022/05/10 00:25:17;;;;;;;3.67;2.42;;;13.60;73.00;;;;;;5033075;28;20041;-77
2022/05/10 00:27:45;;;;;;;8.70;3.30;;;13.50;73.20;;;;;;5033172;28;20084;-77
2022/05/10 00:30:13;;;;;;;4.10;2.60;;;13.50;73.40;;;;;;4995492;28;20239;-76
2022/05/10 00:32:41;;;;;;;5.47;2.30;;;13.60;73.60;;;;;;5033847;28;20050;-78
2022/05/10 00:35:20;;;;;;;4.18;2.55;;;13.60;73.70;;;;;;5016406;28;20537;-78
2022/05/10 00:37:50;;;;;;;5.57;2.42;;;13.60;73.60;;;;;;5034422;28;20041;-78
2022/05/10 00:40:21;;;;;;;4.75;2.92;;;13.60;73.70;;;;;;5034356;28;20042;-77
2022/05/10 00:42:52;;;;;;;3.42;2.50;;;13.60;74.00;;;;;;5017223;28;20049;-78
2022/05/10 00:45:38;;;;;;;4.40;2.38;;;13.50;74.30;;;;;;5034179;28;20045;-77
2022/05/10 00:48:18;;;;;;;5.75;2.92;;;13.50;74.60;;;;;;5021689;28;20414;-77
2022/05/10 00:50:52;;;;;;;4.72;2.63;;;13.50;74.70;;;;;;5033713;28;20053;-78
2022/05/10 00:53:28;;;;;;;5.60;2.38;;;13.40;74.80;;;;;;5032684;28;20045;-77
2022/05/10 00:56:01;;;;;;;4.93;2.40;;;13.40;75.10;;;;;;5031642;28;20053;-78
2022/05/10 00:59:07;;;;;;;3.63;2.17;;;13.40;75.40;;;;;;5033107;28;20040;-77
2022/05/10 01:01:36;;;;;;;4.43;2.20;;;13.30;75.70;;;;;;4933154;29;20473;-78
2022/05/10 01:04:28;;;;;;;4.57;2.33;;;13.30;75.80;;;;;;4921664;29;20056;-76
2022/05/10 01:06:58;;;;;;;5.60;2.53;;;13.40;75.90;;;;;;4933876;29;20048;-76
2022/05/10 01:09:45;;;;;;;3.88;2.58;;;13.40;75.90;;;;;;4938424;29;20044;-77
2022/05/10 01:12:17;;;;;;;5.53;2.63;;;13.30;75.90;;;;;;4934346;29;20052;-77
2022/05/10 01:15:04;;;;;;;4.65;2.30;;;13.40;76.10;;;;;;4932974;29;20052;-76
2022/05/10 01:17:31;;;;;;;6.40;2.53;;;13.40;76.10;;;;;;4933469;29;20430;-77
2022/05/10 01:19:59;;;;;;;6.25;2.70;;;13.40;76.20;;;;;;4943361;28;20058;-78
2022/05/10 01:22:30;;;;;;;4.45;2.35;;;13.40;76.30;;;;;;4964839;28;20416;-79
2022/05/10 01:25:49;;;;;;;2.88;2.42;;;13.40;76.30;;;;;;4946967;29;20056;-76
2022/05/10 01:28:30;;;;;;;6.03;2.30;;;13.40;76.50;;;;;;4910907;29;20052;-77
2022/05/10 01:31:05;;;;;;;6.43;2.40;;;13.40;76.40;;;;;;4912636;29;20061;-78
2022/05/10 01:33:38;;;;;;;3.85;2.00;;;13.40;76.60;;;;;;4914101;29;20157;-76
2022/05/10 01:36:30;;;;;;;5.13;2.05;;;13.40;76.80;;;;;;4921268;29;20413;-77
2022/05/10 01:39:30;;;;;;;2.63;2.20;;;13.40;76.80;;;;;;4944553;29;20066;-77
2022/05/10 01:42:07;;;;;;;4.63;2.15;;;13.40;76.80;;;;;;4936924;29;20055;-77
2022/05/10 01:44:59;;;;;;;6.85;1.90;;;13.30;77.00;;;;;;4951198;28;20508;-77
2022/05/10 01:47:32;;;;;;;3.85;1.88;;;13.30;77.30;;;;;;4934058;29;20047;-77
2022/05/10 01:50:21;;;;;;;5.43;1.90;;;13.30;77.60;;;;;;4950969;29;20047;-77
2022/05/10 01:53:09;;;;;;;4.82;1.77;;;13.20;77.70;;;;;;4951770;29;20063;-77
2022/05/10 01:55:49;;;;;;;2.88;1.65;;;13.20;77.90;;;;;;4951141;29;20488;-77
2022/05/10 01:58:19;;;;;;;5.35;1.92;;;13.20;78.10;;;;;;4952142;29;20047;-78
2022/05/10 02:00:55;;;;;;;4.22;1.70;;;13.20;78.10;;;;;;4952372;29;20058;-78
2022/05/10 02:03:37;;;;;;;3.53;2.17;;;13.10;78.10;;;;;;4970801;28;20056;-78
2022/05/10 02:06:19;;;;;;;4.32;1.90;;;13.10;78.40;;;;;;5025817;28;20064;-78
2022/05/10 02:08:51;;;;;;;3.15;1.95;;;13.00;78.60;;;;;;5031578;28;20053;-78
2022/05/10 02:11:19;;;;;;;3.13;1.95;;;13.00;78.90;;;;;;5014660;28;20049;-79
2022/05/10 02:14:01;;;;;;;2.08;1.63;;;13.00;79.20;;;;;;5011889;28;20037;-78
2022/05/10 02:16:41;;;;;;;4.15;1.67;;;13.00;79.30;;;;;;5014104;28;20756;-78
2022/05/10 02:19:49;;;;;;;4.93;2.30;;;13.00;79.30;;;;;;5020204;28;20048;-78
2022/05/10 02:22:28;;;;;;;2.20;1.50;;;13.00;79.50;;;;;;5017639;28;20049;-78
2022/05/10 02:25:05;;;;;;;3.40;1.85;;;12.90;79.90;;;;;;5033901;28;20490;-78
2022/05/10 02:27:39;;;;;;;3.85;1.55;;;12.90;80.10;;;;;;5035435;28;20049;-78
2022/05/10 02:30:11;;;;;;;3.75;1.90;;;12.80;80.40;;;;;;5037229;28;20056;-77
2022/05/10 02:33:08;;;;;;;5.22;1.83;;;12.80;80.40;;;;;;5032011;28;20486;-76
2022/05/10 02:35:44;;;;;;;3.95;1.65;;;12.80;80.60;;;;;;5035948;28;20398;-77
2022/05/10 02:38:21;;;;;;;4.40;1.90;;;12.70;81.10;;;;;;5035464;28;20095;-77
2022/05/10 02:40:51;;;;;;;7.25;2.00;;;12.70;81.30;;;;;;5031189;28;20049;-76
2022/05/10 02:43:27;;;;;;;3.90;2.15;;;12.80;81.30;;;;;;5026659;28;20491;-77
2022/05/10 02:45:55;;;;;;;5.35;1.80;;;12.80;81.10;;;;;;5028502;28;20398;-76
2022/05/10 02:48:32;;;;;;;3.05;1.52;;;12.80;81.40;;;;;;5030081;28;20061;-77
2022/05/10 02:51:01;;;;;;;4.75;2.20;;;12.80;81.40;;;;;;5032251;28;20082;-77
2022/05/10 02:53:29;;;;;;;4.43;1.90;;;12.90;81.30;;;;;;5029989;28;20052;-77
2022/05/10 02:56:08;;;;;;;3.67;1.80;;;12.90;81.60;;;;;;5029777;28;20045;-77
2022/05/10 02:58:41;;;;;;;3.58;1.77;;;12.80;81.70;;;;;;5030529;28;20064;-76
2022/05/10 03:01:37;;;;;;;4.60;1.70;;;12.80;82.10;;;;;;5013810;28;20052;-77
2022/05/10 03:04:07;;;;;;;3.78;1.80;;;12.80;82.60;;;;;;5029341;28;20045;-76
2022/05/10 03:06:36;;;;;;;2.22;1.73;;;12.80;83.10;;;;;;5010739;28;20521;-76
2022/05/10 03:09:05;;;;;;;2.45;1.80;;;12.80;83.30;;;;;;5021458;28;20042;-76
2022/05/10 03:11:35;;;;;;;3.55;2.35;;;12.70;83.50;;;;;;5031803;28;20049;-76
2022/05/10 03:14:05;;;;;;;3.58;1.95;;;12.60;83.70;;;;;;5028222;28;20053;-77
2022/05/10 03:16:34;;;;;;;3.13;1.90;;;12.60;84.00;;;;;;5012137;28;20064;-77
2022/05/10 03:19:04;;;;;;;4.63;2.17;;;12.60;84.10;;;;;;5027053;28;20042;-77
2022/05/10 03:21:36;;;;;;;3.45;2.03;;;12.60;84.20;;;;;;5045876;28;20053;-78
2022/05/10 03:24:04;;;;;;;4.07;2.13;;;12.60;84.50;;;;;;5049041;28;20041;-77
2022/05/10 03:26:32;;;;;;;4.97;2.00;;;12.70;84.50;;;;;;5050849;28;20045;-78
2022/05/10 03:28:59;;;;;;;2.58;2.15;;;12.70;84.60;;;;;;5049184;28;20057;-77
2022/05/10 03:31:28;;;;;;;3.13;2.17;;;12.70;84.80;;;;;;5050859;28;20045;-77
2022/05/10 03:36:43;;;;;;;3.00;2.33;;;12.70;84.70;;;;;;5043454;28;20490;-78
2022/05/10 03:39:10;;;;;;;3.58;2.28;;;12.70;84.80;;;;;;5033850;28;20041;-78
2022/05/10 03:41:38;;;;;;;4.35;2.50;;;12.80;84.90;;;;;;5048757;28;20049;-77
2022/05/10 03:44:06;;;;;;;3.90;2.50;;;12.80;84.90;;;;;;5048724;28;20041;-78
2022/05/10 03:46:34;;;;;;;4.88;2.15;;;12.80;84.80;;;;;;5051035;28;20454;-78
2022/05/10 03:49:03;;;;;;;4.55;2.60;;;12.80;85.00;;;;;;5048717;28;20052;-78
2022/05/10 03:51:31;;;;;;;7.82;2.70;;;12.70;84.90;;;;;;5032505;28;20087;-78
2022/05/10 03:53:58;;;;;;;3.72;2.65;;;12.80;85.00;;;;;;5048843;28;20060;-77
2022/05/10 03:56:26;;;;;;;6.95;2.38;;;12.80;85.00;;;;;;5032638;28;20410;-78
2022/05/10 03:58:57;;;;;;;2.83;2.30;;;12.80;85.00;;;;;;5015610;28;20052;-77
2022/05/10 04:01:28;;;;;;;3.40;2.53;;;12.80;85.00;;;;;;5048574;28;20040;-78
2022/05/10 04:03:55;;;;;;;1.80;1.70;;;12.80;85.00;;;;;;5048885;28;20053;-78
2022/05/10 04:06:29;;;;;;;2.63;1.92;;;12.80;85.10;;;;;;5050261;28;20033;-78
2022/05/10 04:08:57;;;;;;;2.75;1.88;;;12.80;85.20;;;;;;5048119;28;20048;-78
2022/05/10 04:11:25;;;;;;;2.40;1.60;;;12.90;85.20;;;;;;5031315;28;20041;-78
2022/05/10 04:13:53;;;;;;;4.00;1.73;;;12.90;85.00;;;;;;5049657;28;20052;-78
2022/05/10 04:16:22;;;;;;;3.15;1.20;;;12.90;85.00;;;;;;5048457;28;20068;-77
2022/05/10 04:18:50;;;;;;;3.60;1.60;;;12.90;85.10;;;;;;5049337;28;20049;-77
2022/05/10 04:21:18;;;;;;;2.95;1.85;;;12.90;85.20;;;;;;5043829;28;20409;-77
2022/05/10 04:23:46;;;;;;;2.75;1.30;;;12.90;85.10;;;;;;5050444;28;20055;-77
2022/05/10 04:26:15;;;;;;;3.47;1.25;;;12.90;85.10;;;;;;5032548;28;20051;-78
2022/05/10 04:28:44;;;;;;;4.35;1.23;;;12.90;85.10;;;;;;5051741;28;20037;-77
2022/05/10 04:31:12;;;;;;;2.50;1.30;;;12.80;84.90;;;;;;5019057;28;20046;-77
2022/05/10 04:33:40;;;;;;;3.63;1.10;;;12.80;84.80;;;;;;5058911;28;20064;-77
2022/05/10 04:36:08;;;;;;;3.47;0.98;;;12.80;84.60;;;;;;5064632;28;20052;-75
2022/05/10 04:38:45;;;;;;;4.63;1.05;;;12.80;84.60;;;;;;5058277;28;20509;-76
2022/05/10 04:41:24;;;;;;;2.55;0.85;;;12.80;84.40;;;;;;5055582;28;20049;-77
2022/05/10 04:43:54;;;;;;;4.70;1.35;;;12.80;82.60;;;;;;5036398;28;20561;-77
2022/05/10 04:46:22;;;;;;;4.60;1.10;;;12.70;80.00;;;;;;5053895;28;20051;-77
2022/05/10 04:48:50;;;;;;;4.55;0.70;;;12.70;79.40;;;;;;5053312;28;20540;-77
2022/05/10 04:51:18;;;;;;;4.95;1.30;;;12.60;78.00;;;;;;5036794;28;20049;-77
2022/05/10 04:53:46;;;;;;;7.25;1.30;;;12.50;76.40;;;;;;5034618;28;20056;-76
2022/05/10 04:56:14;;;;;;;6.72;1.25;;;12.40;76.20;;;;;;5053027;28;20494;-77
2022/05/10 04:58:43;;;;;;;8.82;1.23;;;12.40;74.70;;;;;;5052527;28;20057;-77
2022/05/10 05:01:13;;;;;;;8.07;1.25;;;12.30;74.30;;;;;;5035253;28;20049;-77
2022/05/10 05:03:46;;;;;;;11.75;1.73;;;12.30;74.60;;;;;;5039361;28;20060;-77
2022/05/10 05:06:14;;;;;;;9.18;1.25;;;12.20;74.50;;;;;;5052767;28;20052;-77
2022/05/10 05:08:45;;;;;;;6.60;1.52;;;12.10;74.80;;;;;;5035833;28;20040;-77
2022/05/10 05:11:13;;;;;;;9.95;1.70;;;12.10;75.20;;;;;;5052288;28;20611;-77
2022/05/10 05:13:40;;;;;;;9.05;1.80;;;12.00;75.40;;;;;;5033140;28;20116;-77
2022/05/10 05:16:08;;;;;;;12.50;1.40;;;12.00;75.60;;;;;;5052936;28;20041;-76
2022/05/10 05:18:36;;;;;;;11.68;1.60;;;11.90;75.70;;;;;;5040579;28;20045;-77
2022/05/10 05:21:03;;;;;;;12.00;2.13;;;12.00;76.00;;;;;;5023850;28;20057;-77
2022/05/10 05:23:31;;;;;;;12.70;2.55;;;11.90;76.10;;;;;;5031885;28;20054;-78
2022/05/10 05:25:59;;;;;;;7.95;1.58;;;11.80;76.40;;;;;;5022351;28;20049;-77
2022/05/10 05:28:26;;;;;;;7.53;1.02;;;11.80;76.90;;;;;;5032169;28;20038;-77
2022/05/10 05:30:54;;;;;;;15.00;2.13;;;11.80;77.20;;;;;;5028930;28;20053;-77
2022/05/10 05:33:22;;;;;;;12.88;1.98;;;11.80;77.20;;;;;;5027644;28;20053;-77
2022/05/10 05:35:49;;;;;;;15.38;2.33;;;11.70;77.50;;;;;;5025519;28;20045;-77
2022/05/10 05:38:17;;;;;;;14.43;2.13;;;11.70;77.80;;;;;;5033610;28;20049;-78
2022/05/10 05:40:45;;;;;;;13.45;2.28;;;11.70;78.00;;;;;;5031543;28;20041;-78
2022/05/10 05:43:20;;;;;;;11.75;1.98;;;11.70;78.20;;;;;;5029210;28;20041;-78
2022/05/10 05:45:50;;;;;;;10.35;1.73;;;11.60;78.50;;;;;;5031611;28;20050;-78
2022/05/10 05:48:18;;;;;;;12.52;2.20;;;11.60;78.50;;;;;;5014566;28;20532;-78
2022/05/10 05:50:46;;;;;;;16.70;2.03;;;11.60;78.80;;;;;;5032162;28;20406;-78
2022/05/10 05:53:18;;;;;;;12.70;2.30;;;11.60;78.90;;;;;;4997851;28;20057;-78
2022/05/10 05:55:48;;;;;;;14.93;1.90;;;11.60;78.90;;;;;;5032545;28;20049;-78
2022/05/10 05:58:16;;;;;;;10.25;1.88;;;11.60;78.90;;;;;;5031298;28;20060;-78
2022/05/10 06:00:44;;;;;;;9.43;1.77;;;11.70;78.70;;;;;;5030215;28;20044;-78
2022/05/10 06:03:12;;;;;;;9.45;1.42;;;11.80;78.50;;;;;;5035084;28;20402;-79
2022/05/10 06:05:40;;;;;;;11.65;1.98;;;11.80;78.10;;;;;;5015696;28;20064;-79
2022/05/10 06:08:09;;;;;;;13.70;2.28;;;11.90;77.80;;;;;;5015274;28;20053;-79
2022/05/10 06:10:38;;;;;;;11.95;1.42;;;11.90;77.80;;;;;;5038558;28;20049;-80
2022/05/10 06:13:06;;;;;;;13.00;2.42;;;12.00;77.80;;;;;;5033101;28;20050;-79
2022/05/10 06:15:34;;;;;;;14.57;2.10;;;12.10;77.00;;;;;;5031248;28;20072;-79
2022/05/10 06:18:04;;;;;;;18.65;2.15;;;12.20;76.60;;;;;;5025988;28;20061;-79
2022/05/10 06:20:33;;;;;;;12.00;1.80;;;12.20;76.10;;;;;;5038523;28;20056;-79
2022/05/10 06:23:01;;;;;;;9.98;1.75;;;12.30;76.20;;;;;;5055599;28;20516;-79
2022/05/10 06:25:29;;;;;;;16.15;2.10;;;12.30;75.60;;;;;;5052919;28;20387;-78
2022/05/10 06:27:56;;;;;;;12.82;2.20;;;12.30;75.80;;;;;;5044129;28;20056;-78
2022/05/10 06:30:25;;;;;;;8.27;1.73;;;12.20;76.10;;;;;;5061303;28;20049;-78
2022/05/10 06:32:56;;;;;;;16.27;2.03;;;12.30;76.00;;;;;;5038953;28;20041;-78
2022/05/10 06:35:24;;;;;;;18.90;1.90;;;12.30;75.90;;;;;;5043776;28;20053;-78
2022/05/10 06:40:39;;;;;;;11.15;2.35;;;12.30;75.90;;;;;;5053477;28;20041;-78
2022/05/10 06:43:06;;;;;;;19.45;3.10;;;12.40;75.80;;;;;;5053411;28;20486;-78
2022/05/10 06:45:36;;;;;;;16.45;2.55;;;12.50;75.40;;;;;;5062502;28;20036;-78
2022/05/10 06:48:04;;;;;;;16.40;2.30;;;12.50;75.10;;;;;;5070773;28;20045;-78
2022/05/10 06:50:32;;;;;;;12.20;1.88;;;12.50;75.30;;;;;;5058953;28;20052;-78
2022/05/10 06:53:00;;;;;;;23.05;2.67;;;12.60;75.20;;;;;;5054217;28;20044;-78
2022/05/10 06:55:30;;;;;;;9.05;1.88;;;12.70;74.70;;;;;;5051836;28;20064;-79
2022/05/10 06:58:01;;;;;;;22.75;2.22;;;12.70;74.50;;;;;;5052571;28;20063;-79
2022/05/10 07:00:33;;;;;;;19.92;1.90;;;12.80;74.20;;;;;;5048143;28;20036;-78
2022/05/10 07:03:12;;;;;;;15.18;1.65;;;12.80;74.10;;;;;;5064143;28;20045;-77
2022/05/10 07:05:42;;;;;;;16.00;1.90;;;12.80;74.00;;;;;;5060640;28;20052;-78
2022/05/10 07:08:11;;;;;;;10.65;1.73;;;12.90;74.00;;;;;;5034602;28;20045;-79
2022/05/10 07:10:39;;;;;;;14.63;2.15;;;12.90;73.80;;;;;;5055072;28;20516;-78
2022/05/10 07:13:07;;;;;;;20.05;2.15;;;13.00;73.70;;;;;;5053295;28;20060;-79
2022/05/10 07:15:35;;;;;;;16.15;2.53;;;13.00;73.90;;;;;;5052989;28;20049;-79
2022/05/10 07:18:03;;;;;;;22.10;2.83;;;13.10;73.70;;;;;;5064761;28;20378;-79
2022/05/10 07:20:31;;;;;;;14.00;2.83;;;13.10;73.70;;;;;;5036801;28;20050;-78
2022/05/10 07:22:58;;;;;;;13.55;2.70;;;13.20;73.80;;;;;;5038756;28;20060;-79
2022/05/10 07:25:28;;;;;;;24.67;3.10;;;13.30;73.60;;;;;;5023653;28;20664;-79
2022/05/10 07:27:57;;;;;;;23.65;3.28;;;13.30;73.50;;;;;;5031216;28;20049;-79
2022/05/10 07:30:27;;;;;;;11.50;1.70;;;13.30;73.10;;;;;;5030341;28;20545;-80
2022/05/10 07:32:55;;;;;;;11.90;1.85;;;13.30;72.60;;;;;;5017381;28;20497;-79
2022/05/10 07:38:15;;;;;;;19.67;2.63;;;13.30;72.60;;;;;;5030432;28;20518;-79
2022/05/10 07:40:47;;;;;;;12.55;2.15;;;13.30;72.70;;;;;;5013802;28;20063;-79
2022/05/10 07:43:16;;;;;;;17.63;2.45;;;13.30;73.00;;;;;;5013954;28;20049;-79
2022/05/10 07:45:50;;;;;;;12.95;2.47;;;13.30;73.10;;;;;;5030243;28;20049;-79
2022/05/10 07:48:18;;;;;;;;;;;13.40;72.40;;;;;;5032194;28;20038;-79
2022/05/10 07:50:47;;;;;;;12.63;1.92;;;13.30;72.50;;;;;;5031827;28;19928;-79
2022/05/10 07:53:14;;;;;;;19.08;2.20;;;13.30;71.90;;;;;;5031568;28;20050;-79
2022/05/10 07:55:44;;;;;;;9.82;1.88;;;13.30;72.50;;;;;;5013407;28;20061;-79
2022/05/10 07:58:12;;;;;;;16.27;2.50;;;13.30;72.80;;;;;;5013745;28;20056;-78
2022/05/10 08:00:41;;;;;;;17.50;2.20;;;13.30;72.50;;;;;;5030872;28;20045;-79
2022/05/10 08:03:18;;;;;;;16.05;2.47;;;13.50;72.50;;;;;;4998967;28;20521;-79
2022/05/10 08:05:46;;;;;;;17.17;2.72;;;13.60;71.90;;;;;;5034862;28;20509;-78
2022/05/10 08:08:17;;;;;;;18.33;2.85;;;13.80;72.20;;;;;;5035098;28;20046;-79
2022/05/10 08:10:47;;;;;;;23.38;2.47;;;13.90;71.40;;;;;;5035182;28;20800;-79
2022/05/10 08:13:17;;;;;;;21.52;2.45;;;14.00;70.60;;;;;;5034575;28;20041;-79
2022/05/10 08:15:45;;;;;;;17.60;2.50;;;14.00;70.10;;;;;;5017266;28;20050;-79
2022/05/10 08:18:14;;;;;;;9.80;1.73;;;14.10;70.50;;;;;;5034151;28;20426;-79
2022/05/10 08:20:41;;;;;;;8.77;1.45;;;14.10;69.60;;;;;;5017241;28;20402;-78
2022/05/10 08:23:11;;;;;;;10.35;1.83;;;14.10;68.50;;;;;;5038218;28;20052;-78
2022/05/10 08:25:39;;;;;;;9.20;1.70;;;14.00;69.20;;;;;;5014631;28;20037;-79
2022/05/10 08:28:13;;;;;;;11.07;1.83;;;14.00;69.50;;;;;;5037599;28;20054;-78
2022/05/10 08:30:46;;;;;;;19.17;1.77;;;14.00;69.90;;;;;;4998565;28;20049;-78
2022/05/10 08:33:23;;;;;;;9.43;1.70;;;14.00;69.60;;;;;;5034731;28;20050;-78
2022/05/10 08:35:52;;;;;;;12.13;1.83;;;14.10;70.00;;;;;;5035018;28;20049;-79
2022/05/10 08:38:25;;;;;;;11.82;2.38;;;14.30;69.90;;;;;;5017772;28;20049;-79
2022/05/10 08:40:55;;;;;;;14.15;2.28;;;14.40;69.20;;;;;;5034831;28;20037;-79
2022/05/10 08:43:37;;;;;;;25.77;3.03;;;14.50;69.30;;;;;;5034789;28;20037;-79
2022/05/10 08:46:09;;;;;;;17.10;2.03;;;14.50;67.80;;;;;;5034801;28;20034;-79
2022/05/10 08:48:37;;;;;;;9.88;1.48;;;14.50;68.80;;;;;;5017675;28;20042;-78
2022/05/10 08:51:07;;;;;;;10.50;1.98;;;14.60;68.40;;;;;;5017718;28;20044;-78
2022/05/10 08:53:35;;;;;;;6.65;1.30;;;14.70;68.60;;;;;;5035455;28;20057;-78
2022/05/10 08:56:21;;;;;;;12.27;1.75;;;14.80;66.60;;;;;;5021131;28;20410;-77
2022/05/10 08:59:02;;;;;;;14.98;1.88;;;14.60;66.60;;;;;;5043640;28;20056;-78
2022/05/10 09:01:59;;;;;;;23.45;2.95;;;14.60;67.00;;;;;;5018438;28;20053;-79
2022/05/10 09:04:36;;;;;;;21.85;2.97;;;14.40;67.90;;;;;;4970081;28;20053;-79
2022/05/10 09:07:21;;;;;;;8.52;1.42;;;14.40;68.70;;;;;;5033884;28;20068;-79
2022/05/10 09:10:04;;;;;;;10.07;1.63;;;14.50;68.80;;;;;;5017460;28;20052;-79
2022/05/10 09:12:59;;;;;;;8.40;1.50;;;14.60;69.30;;;;;;5034828;28;20057;-79
2022/05/10 09:15:29;;;;;;;11.68;1.35;;;14.80;68.40;;;;;;4999540;28;20046;-78
2022/05/10 09:17:57;;;;;;;6.30;1.33;;;14.80;68.90;;;;;;5033736;28;20050;-78
2022/05/10 09:20:24;;;;;;;9.15;2.15;;;14.90;69.40;;;;;;5038724;28;20068;-79
2022/05/10 09:23:06;;;;;;;13.40;1.73;;;14.70;70.50;;;;;;5042248;28;20049;-78
2022/05/10 09:25:36;;;;;;;16.50;2.65;;;14.60;71.50;;;;;;5036847;28;20064;-78
2022/05/10 09:28:33;;;;;;;10.27;1.80;;;14.60;71.90;;;;;;5040647;28;20556;-79
2022/05/10 09:34:48;;;;;;;15.68;2.40;;;14.90;71.70;;;;;;5023452;28;20053;-78
2022/05/10 09:37:34;;;;;;;8.45;1.67;;;15.00;70.30;;;;;;5016101;28;20491;-79
2022/05/10 09:40:10;;;;;;;11.85;2.40;;;15.00;70.10;;;;;;5014094;28;20049;-79
2022/05/10 09:42:41;;;;;;;12.00;1.52;;;15.00;69.60;;;;;;5014228;28;20046;-78
2022/05/10 09:45:17;;;;;;;;;;;15.00;69.90;;;;;;5026267;28;20056;-78
2022/05/10 09:48:14;;;;;;;15.68;2.28;;;15.00;69.60;;;;;;5044299;28;19925;-78
2022/05/10 09:50:50;;;;;;;9.20;1.40;;;15.00;70.10;;;;;;5024906;28;20049;-78
2022/05/10 09:53:26;;;;;;;12.68;1.58;;;15.30;69.00;;;;;;5023870;28;20045;-78
2022/05/10 09:56:11;;;;;;;9.63;1.30;;;15.30;66.40;;;;;;5034308;28;20422;-78
2022/05/10 09:58:52;;;;;;;19.27;1.90;;;15.10;65.70;;;;;;5032695;28;20057;-79
2022/05/10 10:01:39;;;;;;;10.63;1.60;;;15.20;66.30;;;;;;5034041;28;20067;-78
2022/05/10 10:04:33;;;;;;;8.40;1.55;;;15.30;66.80;;;;;;5014650;28;20052;-78
2022/05/10 10:07:16;;;;;;;7.60;1.42;;;15.40;66.40;;;;;;5016068;28;20053;-78
2022/05/10 10:09:51;;;;;;;10.73;1.60;;;15.60;64.30;;;;;;5033487;28;20056;-78
2022/05/10 10:12:34;;;;;;;10.82;1.70;;;15.80;64.20;;;;;;5032449;28;20046;-78
2022/05/10 10:15:35;;;;;;;12.68;2.03;;;15.80;64.00;;;;;;5033814;28;20502;-80
2022/05/10 10:18:06;;;;;;;8.40;1.60;;;15.80;64.00;;;;;;5048657;28;20421;-80
2022/05/10 10:20:43;;;;;;;8.35;1.75;;;15.80;64.30;;;;;;5060314;28;20053;-80
2022/05/10 10:23:19;;;;;;;13.55;1.92;;;15.80;64.60;;;;;;5058778;28;20418;-80
2022/05/10 10:25:48;;;;;;;14.13;2.15;;;16.00;63.50;;;;;;5025341;28;20061;-80
2022/05/10 10:28:29;;;;;;;6.78;1.55;;;16.00;62.60;;;;;;5015240;28;20426;-79
2022/05/10 10:31:10;;;;;;;7.90;1.67;;;16.00;62.00;;;;;;5047434;28;20053;-80
2022/05/10 10:33:50;;;;;;;14.75;1.77;;;16.00;62.80;;;;;;5016381;28;20053;-79
2022/05/10 10:36:25;;;;;;;4.47;1.33;;;16.00;61.30;;;;;;5047934;28;20052;-79
2022/05/10 10:39:31;;;;;;;8.15;1.13;;;16.00;60.50;;;;;;5038154;28;20060;-80
2022/05/10 10:42:48;;;;;;;7.22;0.80;;;15.90;60.70;;;;;;4952317;29;20058;-78
2022/05/10 10:45:19;;;;;;;8.45;0.95;;;16.00;59.90;;;;;;4952449;29;20054;-80
2022/05/10 10:48:10;;;;;;;5.38;0.57;;;15.90;60.50;;;;;;4960026;28;20043;-79
2022/05/10 10:50:38;;;;;;;8.68;1.63;;;15.80;61.40;;;;;;4949288;29;20063;-79
2022/05/10 10:53:09;;;;;;;10.23;1.42;;;15.80;62.20;;;;;;4927598;28;20444;-78
2022/05/10 10:55:42;;;;;;;13.00;1.48;;;16.00;62.50;;;;;;4965546;28;20069;-79
2022/05/10 10:58:10;;;;;;;;;;;16.20;62.60;;;;;;4955544;28;20051;-78
2022/05/10 11:00:55;;;;;;;3.63;1.00;;;16.40;60.60;;;;;;4952488;29;19922;-79
2022/05/10 11:03:41;;;;;;;10.75;1.50;;;16.40;60.70;;;;;;4952854;29;20070;-80
2022/05/10 11:06:18;;;;;;;10.40;1.70;;;16.30;60.90;;;;;;4946671;29;20043;-79
2022/05/10 11:09:17;;;;;;;10.23;1.60;;;16.40;61.10;;;;;;4945972;29;20063;-80
2022/05/10 11:12:22;;;;;;;4.10;0.70;;;16.70;61.20;;;;;;4913852;29;20068;-80
2022/05/10 11:15:07;;;;;;;11.10;1.70;;;16.80;56.60;;;;;;4913729;29;20059;-80
2022/05/10 11:17:54;;;;;;;8.60;1.35;;;16.90;57.50;;;;;;4972161;28;20058;-80
2022/05/10 11:20:36;;;;;;;8.30;1.65;;;17.10;57.50;;;;;;4957678;28;20054;-80
2022/05/10 11:23:13;;;;;;;10.63;1.55;;;17.30;55.80;;;;;;4952175;28;20051;-80
2022/05/10 11:26:02;;;;;;;13.93;1.63;;;17.40;57.10;;;;;;4952475;29;20536;-79
2022/05/10 11:28:47;;;;;;;8.77;1.05;;;17.70;54.20;;;;;;4952554;28;20560;-79
2022/05/10 11:31:33;;;;;;;6.50;1.63;;;17.80;52.60;;;;;;4952471;29;20540;-79
2022/05/10 11:34:23;;;;;;;9.43;1.10;;;17.80;53.80;;;;;;4968523;28;20050;-79
2022/05/10 11:36:53;;;;;;;9.50;2.22;;;18.00;52.70;;;;;;4971426;28;20042;-80
2022/05/10 11:39:29;;;;;;;6.65;1.27;;;18.00;54.00;;;;;;4974532;28;20062;-80
2022/05/10 11:42:17;;;;;;;7.88;1.27;;;18.20;52.00;;;;;;4975370;28;20073;-79
2022/05/10 11:45:23;;;;;;;6.47;0.98;;;18.30;52.00;;;;;;4974826;28;20535;-79
2022/05/10 11:48:18;;;;;;;4.50;1.00;;;18.40;49.90;;;;;;4977300;28;20061;-80
2022/05/10 11:51:47;;;;;;;10.00;1.10;;;18.20;49.60;;;;;;5036094;28;20383;-79
2022/05/10 11:54:27;;;;;;;6.05;1.38;;;18.30;49.90;;;;;;5032074;28;20052;-79
2022/05/10 11:56:56;;;;;;;7.20;1.35;;;18.40;48.00;;;;;;5015241;28;20050;-79
2022/05/10 11:59:36;;;;;;;8.20;0.82;;;18.50;48.50;;;;;;5015674;28;20121;-79
2022/05/10 12:02:07;;;;;;;7.32;1.30;;;18.70;46.10;;;;;;5016574;28;20400;-79
2022/05/10 12:04:41;;;;;;;10.68;1.27;;;18.80;46.50;;;;;;5018808;28;20410;-80
2022/05/10 12:07:20;;;;;;;16.42;2.38;;;18.70;46.10;;;;;;5037937;28;20041;-80
2022/05/10 12:09:51;;;;;;;8.43;1.02;;;18.70;48.10;;;;;;5036183;28;20486;-79
2022/05/10 12:12:54;;;;;;;9.90;1.38;;;18.90;47.70;;;;;;5018512;28;20053;-80
2022/05/10 12:21:19;;;;;;;6.90;1.27;;;18.40;46.60;;;;;;4951013;29;20055;-80
2022/05/10 12:24:00;;;;;;;;;;;18.20;47.50;;;;;;4955658;29;20058;-80
2022/05/10 12:27:20;;;;;;;7.57;1.50;;;18.00;47.20;;;;;;4939062;29;20326;-80
2022/05/10 12:29:48;;;;;;;7.25;1.40;;;18.00;47.30;;;;;;4932789;29;20074;-80
2022/05/10 12:32:21;;;;;;;4.85;1.40;;;18.00;47.20;;;;;;4942885;29;20052;-80
2022/05/10 12:35:05;;;;;;;8.20;1.23;;;18.00;47.50;;;;;;4935680;29;20056;-80
2022/05/10 12:37:41;;;;;;;5.90;1.45;;;17.90;48.10;;;;;;4919959;29;20445;-79
2022/05/10 12:40:09;;;;;;;4.97;1.17;;;17.90;48.00;;;;;;4935676;29;20055;-80
2022/05/10 12:43:00;;;;;;;8.00;1.50;;;17.90;46.80;;;;;;4935439;29;20048;-80
2022/05/10 12:45:42;;;;;;;8.25;1.23;;;17.90;47.40;;;;;;4935571;29;20429;-80
2022/05/10 12:48:25;;;;;;;6.30;1.00;;;18.50;47.60;;;;;;4934991;29;20497;-80
2022/05/10 12:51:22;;;;;;;9.80;1.27;;;19.00;46.10;;;;;;4954153;28;20063;-79
2022/05/10 12:54:01;;;;;;;5.95;1.58;;;19.10;44.90;;;;;;5014445;28;20053;-79
2022/05/10 12:56:37;;;;;;;9.32;1.10;;;19.30;45.00;;;;;;5013931;28;20045;-79
2022/05/10 12:59:11;;;;;;;11.13;1.40;;;19.30;45.10;;;;;;4996920;28;20069;-79
2022/05/10 13:01:39;;;;;;;12.77;2.00;;;19.40;45.30;;;;;;4997762;28;20045;-80
2022/05/10 13:04:20;;;;;;;7.05;0.98;;;19.80;46.00;;;;;;5033614;28;20041;-80
2022/05/10 13:07:06;;;;;;;9.40;1.50;;;20.20;42.80;;;;;;5034545;28;20045;-80
2022/05/10 13:09:49;;;;;;;5.32;1.40;;;20.60;42.40;;;;;;5034296;28;20050;-80
2022/05/10 13:12:18;;;;;;;;;;;21.00;39.50;;;;;;5027568;28;20050;-79
2022/05/10 13:14:50;;;;;;;9.32;1.00;;;21.40;38.80;;;;;;5021070;28;19927;-79
2022/05/10 13:17:36;;;;;;;4.85;0.80;;;21.70;36.60;;;;;;5052475;28;20525;-80
2022/05/10 13:20:12;;;;;;;6.75;1.02;;;21.80;36.60;;;;;;5029822;28;20061;-80
2022/05/10 13:23:00;;;;;;;5.13;0.85;;;21.40;36.80;;;;;;5052514;28;20051;-80
2022/05/10 13:25:42;;;;;;;14.90;1.42;;;20.80;37.10;;;;;;5053683;28;20064;-80
2022/05/10 13:28:14;;;;;;;5.03;1.15;;;20.40;39.70;;;;;;5043357;28;20060;-80
2022/05/10 13:30:45;;;;;;;3.53;1.20;;;21.00;40.10;;;;;;5046491;28;20049;-81
2022/05/10 13:33:35;;;;;;;2.28;0.70;;;21.50;37.50;;;;;;5034894;28;20041;-80
2022/05/10 13:36:07;;;;;;;11.13;1.58;;;21.50;36.70;;;;;;5053760;28;20057;-80
2022/05/10 13:38:41;;;;;;;8.32;1.50;;;21.30;37.90;;;;;;5053883;28;20387;-80
2022/05/10 13:41:10;;;;;;;;;;;21.50;38.10;;;;;;5039581;28;20439;-79
2022/05/10 13:43:50;;;;;;;3.58;0.80;;;21.80;36.20;;;;;;5054951;28;19925;-81